ADDS METAR Data INFO
IDs: Format: Raw Decoded Include TAF

Data at: 1413 UTC 12 Dec 2017

KWLD 121354Z AUTO 30006KT 10SM CLR M04/M06 A3041 RMK AO2 SLP307 T10441061
KWLD 121254Z AUTO 34006KT 10SM CLR M06/M07 A3040 RMK AO2 SLP302 T10561067
KWLD 121154Z AUTO 32007KT 10SM CLR M04/M06 A3040 RMK AO2 SLP301 T10391056 10044 21050 53003
KWLD 121054Z AUTO 30006KT 10SM CLR M03/M05 A3039 RMK AO2 SLP294 T10281050
KWLD 120954Z AUTO 35007KT 10SM CLR M03/M04 A3038 RMK AO2 SLP293 T10281044
KWLD 120854Z AUTO 34008KT 10SM CLR M03/M04 A3039 RMK AO2 SLP293 T10281044 53014
KWLD 120754Z AUTO 31006KT 10SM CLR M01/M03 A3036 RMK AO2 SLP283 T10061033
KWLD 120654Z AUTO 35011KT 10SM CLR 04/M02 A3036 RMK AO2 SLP280 T00391017
KWLD 120554Z AUTO 34013KT 10SM CLR 04/M02 A3035 RMK AO2 SLP277 T00441017 10111 20044 402001044 52020
KWLD 120454Z AUTO 35016KT 10SM CLR 06/M02 A3032 RMK AO2 SLP269 T00561017
KWLD 120354Z AUTO 34013KT 10SM CLR 06/M02 A3031 RMK AO2 PK WND 36029/0255 SLP266 T00611017
KWLD 120254Z AUTO 35020G27KT 10SM CLR 08/M02 A3028 RMK AO2 PK WND 34028/0240 SLP260 T00831022 51040
KWLD 120154Z AUTO 35018G27KT 10SM CLR 09/M03 A3025 RMK AO2 PK WND 35031/0134 SLP250 T00941028
KWLD 120054Z AUTO 35013KT 10SM CLR 11/M04 A3021 RMK AO2 SLP236 T01061039
KWLD 112354Z AUTO 34011KT 10SM CLR 10/M08 A3016 RMK AO2 PK WND 34026/2256 SLP220 T01001078 10200 20100 51026
KWLD 112254Z AUTO 34021G30KT 10SM CLR 14/M09 A3014 RMK AO2 PK WND 35030/2249 SLP208 T01441094
KWLD 112154Z AUTO 34018KT 10SM CLR 17/M09 A3011 RMK AO2 PK WND 34031/2124 SLP198 T01721089
KWLD 112054Z AUTO 33021G28KT 10SM CLR 19/M09 A3008 RMK AO2 PK WND 33032/2017 SLP187 T01941094 55016
KWLD 111954Z AUTO 33020G29KT 10SM CLR 19/M09 A3008 RMK AO2 PK WND 34029/1950 SLP186 T01941094
KWLD 111854Z AUTO 33017G24KT 10SM CLR 19/M09 A3010 RMK AO2 SLP194 T01891094
KWLD 111754Z AUTO 35014KT 10SM CLR 17/M10 A3013 RMK AO2 SLP203 T01671100 10172 21044 58003
KWLD 111654Z AUTO 33010KT 10SM CLR 13/M08 A3015 RMK AO2 SLP211 T01281083
KWLD 111554Z AUTO 32007KT 10SM CLR 09/M08 A3015 RMK AO2 SLP214 T00891078
KWLD 111454Z AUTO 00000KT 10SM CLR 03/M06 A3014 RMK AO2 SLP212 T00281061 58001
KWLD 111354Z AUTO 00000KT 10SM CLR M02/M08 A3014 RMK AO2 SLP214 T10171083
KWLD 111254Z AUTO 21004KT 10SM CLR M03/M08 A3015 RMK AO2 SLP217 T10281083
KWLD 111154Z AUTO 00000KT 10SM CLR M02/M08 A3014 RMK AO2 SLP211 T10221078 10039 21039 56011
KWLD 111054Z AUTO 00000KT 10SM CLR 01/M08 A3014 RMK AO2 SLP209 T00111078
KWLD 110954Z AUTO 00000KT 10SM CLR M02/M07 A3016 RMK AO2 SLP216 T10221072
KWLD 110854Z AUTO 00000KT 10SM CLR M01/M06 A3017 RMK AO2 SLP220 T10111061 56014
KWLD 110754Z AUTO 00000KT 10SM CLR 02/M07 A3018 RMK AO2 SLP222 T00221072
KWLD 110654Z AUTO 00000KT 10SM CLR M01/M06 A3020 RMK AO2 SLP228 T10061061
KWLD 110554Z AUTO 00000KT 10SM CLR 04/M07 A3022 RMK AO2 SLP234 T00391072 10122 20000 401891044 55000
KWLD 110454Z AUTO 00000KT 10SM CLR 02/M06 A3021 RMK AO2 SLP233 T00221061
KWLD 110354Z AUTO 00000KT 10SM CLR 02/M07 A3022 RMK AO2 SLP238 T00171067
KWLD 110254Z AUTO 00000KT 10SM CLR 06/M07 A3022 RMK AO2 SLP239 T00561072 53000